createdAt,value
2023-04-21T00:01:26.101Z,9.62
2023-04-21T00:03:52.689Z,9.70
2023-04-21T00:06:22.687Z,9.63
2023-04-21T00:08:50.161Z,9.75
2023-04-21T00:11:16.586Z,9.85
2023-04-21T00:13:43.061Z,9.96
2023-04-21T00:16:09.577Z,9.66
2023-04-21T00:18:36.029Z,9.80
2023-04-21T00:21:02.555Z,9.73
2023-04-21T00:23:28.998Z,9.72
2023-04-21T00:25:55.466Z,9.62
2023-04-21T00:28:21.911Z,9.66
2023-04-21T00:30:48.282Z,9.73
2023-04-21T00:33:14.653Z,9.76
2023-04-21T00:35:41.022Z,9.64
2023-04-21T00:38:07.389Z,9.70
2023-04-21T00:40:33.957Z,9.61
2023-04-21T00:43:00.431Z,9.70
2023-04-21T00:45:26.826Z,9.59
2023-04-21T00:47:53.274Z,9.63
2023-04-21T00:50:19.693Z,9.75
2023-04-21T00:52:47.035Z,9.63
2023-04-21T00:55:14.303Z,9.50
2023-04-21T00:57:40.737Z,9.60
2023-04-21T01:00:08.898Z,9.64
2023-04-21T01:02:35.782Z,9.75
2023-04-21T01:05:05.397Z,9.74
2023-04-21T01:07:31.892Z,9.71
2023-04-21T01:09:59.679Z,9.56
2023-04-21T01:12:26.044Z,9.68
2023-04-21T01:14:52.491Z,9.69
2023-04-21T01:17:19.074Z,9.75
2023-04-21T01:19:45.941Z,9.72
2023-04-21T01:22:12.974Z,9.70
2023-04-21T01:24:42.904Z,9.82
2023-04-21T01:27:11.198Z,9.82
2023-04-21T01:29:38.738Z,9.85
2023-04-21T01:32:11.816Z,9.75
2023-04-21T01:34:39.697Z,9.81
2023-04-21T01:37:14.175Z,9.81
2023-04-21T01:39:42.164Z,9.79
2023-04-21T01:42:09.079Z,9.63
2023-04-21T01:44:35.928Z,9.65
2023-04-21T01:47:02.393Z,9.72
2023-04-21T01:49:28.766Z,9.74
2023-04-21T01:51:55.177Z,9.76
2023-04-21T01:54:21.583Z,9.70
2023-04-21T01:56:47.966Z,9.70
2023-04-21T01:59:14.385Z,9.56
2023-04-21T02:01:40.908Z,9.51
2023-04-21T02:04:07.738Z,9.40
2023-04-21T02:06:34.309Z,9.24
2023-04-21T02:09:00.678Z,9.01
2023-04-21T02:11:27.042Z,8.99
2023-04-21T02:13:54.150Z,8.85
2023-04-21T02:16:20.703Z,8.97
2023-04-21T02:18:48.291Z,9.09
2023-04-21T02:21:15.451Z,9.11
2023-04-21T02:23:41.849Z,9.14
2023-04-21T02:26:08.277Z,9.42
2023-04-21T02:28:34.737Z,9.35
2023-04-21T02:31:01.105Z,8.84
2023-04-21T02:33:27.532Z,9.09
2023-04-21T02:35:53.982Z,9.30
2023-04-21T02:38:20.410Z,9.40
2023-04-21T02:40:46.771Z,9.30
2023-04-21T02:43:16.784Z,9.47
2023-04-21T02:45:43.162Z,9.66
2023-04-21T02:48:09.791Z,9.54
2023-04-21T02:50:36.511Z,9.18
2023-04-21T02:53:02.866Z,9.01
2023-04-21T02:55:29.660Z,9.22
2023-04-21T02:57:56.364Z,9.34
2023-04-21T03:00:22.853Z,9.58
2023-04-21T03:02:49.417Z,9.27
2023-04-21T03:05:16.005Z,8.71
2023-04-21T03:07:42.382Z,8.91
2023-04-21T03:10:08.814Z,9.25
2023-04-21T03:12:35.382Z,9.43
2023-04-21T03:15:01.762Z,9.56
2023-04-21T03:17:29.394Z,9.44
2023-04-21T03:19:57.287Z,9.58
2023-04-21T03:22:23.655Z,9.72
2023-04-21T03:24:50.032Z,9.53
2023-04-21T03:27:16.412Z,9.26
2023-04-21T03:29:42.782Z,9.48
2023-04-21T03:32:09.201Z,9.30
2023-04-21T03:34:35.771Z,9.25
2023-04-21T03:37:02.143Z,9.34
2023-04-21T03:39:28.526Z,9.46
2023-04-21T03:41:54.893Z,9.51
2023-04-21T03:44:21.300Z,9.54
2023-04-21T03:46:47.664Z,9.65
2023-04-21T03:49:14.045Z,9.61
2023-04-21T03:51:40.420Z,9.66
2023-04-21T03:54:06.999Z,9.64
2023-04-21T03:56:33.362Z,9.54
2023-04-21T03:58:59.743Z,9.45
2023-04-21T04:01:26.612Z,9.57
2023-04-21T04:03:53.242Z,9.65
2023-04-21T04:06:19.746Z,9.59
2023-04-21T04:08:46.429Z,9.67
2023-04-21T04:11:12.796Z,9.64
2023-04-21T04:13:39.188Z,9.57
2023-04-21T04:16:05.972Z,9.40
2023-04-21T04:18:32.379Z,9.27
2023-04-21T04:20:58.741Z,9.26
2023-04-21T04:23:26.027Z,9.14
2023-04-21T04:25:52.394Z,9.18
2023-04-21T04:28:18.779Z,9.47
2023-04-21T04:30:45.359Z,9.30
2023-04-21T04:33:11.868Z,9.36
2023-04-21T04:35:38.599Z,9.39
2023-04-21T04:38:04.970Z,9.53
2023-04-21T04:40:33.161Z,9.61
2023-04-21T04:43:01.250Z,9.51
2023-04-21T04:45:28.475Z,9.38
2023-04-21T04:47:54.916Z,9.44
2023-04-21T04:50:21.370Z,9.44
2023-04-21T04:52:48.989Z,9.45
2023-04-21T04:55:15.482Z,9.46
2023-04-21T04:57:41.917Z,9.44
2023-04-21T05:00:11.184Z,9.20
2023-04-21T05:02:38.495Z,9.37
2023-04-21T05:05:07.074Z,9.32
2023-04-21T05:07:36.954Z,9.15
2023-04-21T05:10:04.470Z,9.01
2023-04-21T05:12:32.238Z,9.17
2023-04-21T05:14:58.690Z,9.29
2023-04-21T05:17:25.523Z,9.40
2023-04-21T05:19:51.937Z,9.43
2023-04-21T05:22:18.289Z,9.46
2023-04-21T05:24:44.729Z,9.42
2023-04-21T05:27:11.086Z,9.47
2023-04-21T05:29:37.502Z,9.62
2023-04-21T05:32:03.982Z,9.69
2023-04-21T05:34:30.487Z,9.76
2023-04-21T05:36:56.916Z,9.42
2023-04-21T05:39:23.362Z,9.44
2023-04-21T05:41:49.740Z,9.61
2023-04-21T05:44:18.174Z,9.67
2023-04-21T05:46:44.771Z,9.67
2023-04-21T05:49:11.433Z,9.83
2023-04-21T05:51:37.804Z,9.90
2023-04-21T05:54:04.176Z,9.81
2023-04-21T05:56:30.557Z,9.83
2023-04-21T05:58:56.923Z,9.94
2023-04-21T06:01:23.285Z,9.92
2023-04-21T06:03:50.350Z,9.86
2023-04-21T06:06:17.514Z,9.64
2023-04-21T06:08:43.994Z,9.69
2023-04-21T06:11:10.367Z,9.74
2023-04-21T06:13:38.594Z,9.77
2023-04-21T06:16:05.989Z,9.80
2023-04-21T06:18:32.422Z,9.81
2023-04-21T06:20:58.786Z,9.67
2023-04-21T06:23:25.353Z,9.60
2023-04-21T06:26:06.647Z,9.61
2023-04-21T06:28:34.474Z,9.57
2023-04-21T06:31:01.560Z,9.64
2023-04-21T06:33:28.184Z,9.83
2023-04-21T06:35:54.625Z,9.83
2023-04-21T06:38:21.363Z,10.08
2023-04-21T06:40:47.908Z,10.20
2023-04-21T06:43:14.403Z,10.35
2023-04-21T06:45:40.802Z,10.43
2023-04-21T06:48:07.290Z,10.42
2023-04-21T06:50:33.746Z,10.63
2023-04-21T06:53:00.213Z,10.57
2023-04-21T06:55:26.592Z,10.58
2023-04-21T06:57:52.991Z,10.52
2023-04-21T07:00:19.474Z,10.60
2023-04-21T07:02:45.952Z,10.45
2023-04-21T07:05:12.572Z,10.65
2023-04-21T07:07:38.945Z,10.67
2023-04-21T07:10:05.756Z,10.68
2023-04-21T07:12:32.122Z,10.89
2023-04-21T07:14:58.493Z,10.94
2023-04-21T07:17:24.933Z,11.11
2023-04-21T07:19:51.326Z,11.27
2023-04-21T07:22:17.690Z,11.47
2023-04-21T07:24:44.107Z,11.28
2023-04-21T07:27:10.654Z,11.02
2023-04-21T07:29:37.422Z,11.12
2023-04-21T07:32:03.834Z,10.94
2023-04-21T07:34:30.211Z,11.11
2023-04-21T07:36:56.742Z,11.34
2023-04-21T07:39:23.119Z,11.36
2023-04-21T07:41:49.578Z,11.59
2023-04-21T07:44:15.960Z,11.66
2023-04-21T07:46:42.379Z,11.85
2023-04-21T07:49:08.839Z,11.75
2023-04-21T07:51:35.252Z,11.76
2023-04-21T07:54:01.870Z,11.77
2023-04-21T07:56:28.274Z,11.72
2023-04-21T07:58:54.972Z,11.91
2023-04-21T08:01:22.321Z,11.87
2023-04-21T08:03:48.976Z,12.12
2023-04-21T08:06:15.844Z,12.26
2023-04-21T08:08:42.604Z,12.46
2023-04-21T08:11:10.801Z,12.33
2023-04-21T08:13:37.523Z,12.44
2023-04-21T08:16:04.030Z,12.23
2023-04-21T08:18:31.139Z,12.45
2023-04-21T08:20:57.952Z,12.35
2023-04-21T08:23:24.566Z,12.39
2023-04-21T08:25:51.044Z,12.64
2023-04-21T08:28:17.482Z,12.66
2023-04-21T08:30:43.877Z,12.55
2023-04-21T08:33:13.585Z,12.67
2023-04-21T08:35:47.963Z,12.56
2023-04-21T08:38:21.724Z,12.51
2023-04-21T08:40:49.552Z,12.63
2023-04-21T08:43:16.015Z,12.98
2023-04-21T08:45:43.571Z,12.93
2023-04-21T08:48:16.278Z,13.18
2023-04-21T08:50:43.068Z,13.02
2023-04-21T08:53:09.753Z,13.04
2023-04-21T08:55:36.303Z,13.32
2023-04-21T08:58:06.880Z,13.30
2023-04-21T09:00:33.278Z,13.21
2023-04-21T09:03:02.112Z,12.99
2023-04-21T09:05:31.013Z,13.28
2023-04-21T09:08:11.645Z,13.27
2023-04-21T09:10:52.457Z,13.47
2023-04-21T09:13:20.259Z,13.43
2023-04-21T09:15:49.596Z,13.52
2023-04-21T09:18:18.204Z,13.41
2023-04-21T09:20:45.978Z,13.38
2023-04-21T09:23:12.453Z,13.50
2023-04-21T09:25:40.688Z,13.53
2023-04-21T09:28:11.429Z,13.46
2023-04-21T09:30:39.266Z,13.59
2023-04-21T09:33:13.382Z,13.73
2023-04-21T09:35:47.931Z,13.71
2023-04-21T09:38:15.472Z,13.54
2023-04-21T09:40:41.841Z,13.84
2023-04-21T09:43:09.350Z,13.59
2023-04-21T09:45:40.097Z,13.78
2023-04-21T09:48:09.575Z,13.73
2023-04-21T09:51:11.465Z,13.83
2023-04-21T09:53:24.892Z,13.97
2023-04-21T09:55:51.693Z,13.96
2023-04-21T09:58:20.665Z,13.91
2023-04-21T10:00:47.394Z,13.98
2023-04-21T10:03:14.535Z,13.90
2023-04-21T10:05:42.999Z,14.01
2023-04-21T10:08:11.516Z,13.80
2023-04-21T10:10:38.730Z,13.95
2023-04-21T10:13:05.199Z,13.56
2023-04-21T10:15:35.954Z,13.49
2023-04-21T10:18:25.164Z,14.08
2023-04-21T10:20:58.565Z,14.08
2023-04-21T10:23:52.046Z,13.93
2023-04-21T10:26:34.317Z,14.29
2023-04-21T10:29:07.070Z,14.20
2023-04-21T10:31:36.940Z,14.49
2023-04-21T10:34:09.260Z,14.45
2023-04-21T10:36:42.289Z,14.55
2023-04-21T10:39:08.971Z,14.92
2023-04-21T10:41:35.926Z,15.15
2023-04-21T10:44:14.272Z,14.70
2023-04-21T10:46:46.128Z,15.18
2023-04-21T10:49:30.068Z,15.34
2023-04-21T10:51:59.580Z,15.82
2023-04-21T10:54:26.652Z,15.53
2023-04-21T10:56:54.173Z,15.61
2023-04-21T10:59:20.614Z,15.51
2023-04-21T11:01:47.274Z,15.54
2023-04-21T11:04:18.115Z,16.27
2023-04-21T11:07:07.964Z,16.34
2023-04-21T11:09:35.890Z,16.72
2023-04-21T11:12:04.478Z,16.40
2023-04-21T11:14:31.122Z,17.12
2023-04-21T11:16:57.627Z,17.07
2023-04-21T11:19:25.769Z,16.24
2023-04-21T11:21:55.240Z,16.72
2023-04-21T11:24:21.941Z,16.38
2023-04-21T11:26:48.444Z,16.55
2023-04-21T11:29:15.193Z,16.50
2023-04-21T11:31:44.165Z,16.60
2023-04-21T11:34:10.711Z,16.72
2023-04-21T11:36:39.984Z,17.19
2023-04-21T11:39:10.376Z,17.52
2023-04-21T11:41:39.823Z,16.95
2023-04-21T11:44:06.238Z,17.12
2023-04-21T11:46:39.973Z,17.41
2023-04-21T11:49:07.715Z,17.48
2023-04-21T11:51:41.686Z,17.74
2023-04-21T11:54:10.384Z,17.15
2023-04-21T11:56:41.804Z,17.57
2023-04-21T11:59:12.081Z,17.75
2023-04-21T12:01:49.187Z,17.61
2023-04-21T12:04:17.544Z,17.52
2023-04-21T12:06:54.817Z,17.64
2023-04-21T12:09:21.431Z,17.58
2023-04-21T12:11:52.058Z,16.85
2023-04-21T12:14:20.674Z,17.15
2023-04-21T12:16:54.868Z,17.11
2023-04-21T12:19:41.258Z,17.19
2023-04-21T12:22:12.086Z,17.59
2023-04-21T12:24:38.690Z,17.64
2023-04-21T12:27:05.696Z,17.57
2023-04-21T12:29:33.889Z,18.10
2023-04-21T12:32:00.500Z,17.93
2023-04-21T12:34:27.007Z,18.39
2023-04-21T12:36:53.401Z,18.48
2023-04-21T12:39:20.397Z,18.83
2023-04-21T12:41:49.731Z,18.69
2023-04-21T12:44:16.268Z,19.50
2023-04-21T12:46:42.756Z,20.77
2023-04-21T12:49:10.019Z,20.02
2023-04-21T12:51:36.658Z,20.13
2023-04-21T12:54:03.361Z,20.15
2023-04-21T12:56:30.002Z,19.99
2023-04-21T12:58:56.410Z,19.76
2023-04-21T13:01:22.859Z,19.54
2023-04-21T13:03:49.446Z,19.67
2023-04-21T13:06:15.981Z,19.21
2023-04-21T13:08:42.376Z,19.25
2023-04-21T13:11:08.736Z,18.53
2023-04-21T13:13:35.215Z,19.39
2023-04-21T13:16:01.613Z,20.09
2023-04-21T13:18:27.989Z,20.69
2023-04-21T13:20:54.364Z,20.93
2023-04-21T13:23:20.774Z,20.73
2023-04-21T13:25:47.184Z,21.15
2023-04-21T13:28:14.302Z,22.18
2023-04-21T13:30:40.777Z,21.56
2023-04-21T13:33:07.201Z,21.70
2023-04-21T13:35:33.588Z,21.15
2023-04-21T13:38:00.077Z,21.31
2023-04-21T13:40:26.537Z,21.13
2023-04-21T13:42:52.936Z,20.77
2023-04-21T13:45:19.321Z,20.34
2023-04-21T13:47:46.384Z,19.93
2023-04-21T13:50:12.833Z,19.35
2023-04-21T13:52:39.236Z,19.45
2023-04-21T13:55:05.999Z,19.45
2023-04-21T13:57:32.499Z,19.36
2023-04-21T13:59:58.935Z,19.47
2023-04-21T14:02:25.908Z,19.43
2023-04-21T14:04:53.388Z,18.75
2023-04-21T14:07:20.393Z,18.43
2023-04-21T14:09:46.807Z,18.51
2023-04-21T14:12:13.270Z,18.84
2023-04-21T14:14:39.717Z,18.47
2023-04-21T14:17:07.185Z,18.41
2023-04-21T14:19:34.722Z,18.27
2023-04-21T14:22:01.502Z,18.47
2023-04-21T14:24:29.912Z,18.74
2023-04-21T14:26:57.428Z,18.71
2023-04-21T14:29:23.841Z,18.66
2023-04-21T14:31:50.544Z,18.56
2023-04-21T14:34:17.054Z,18.82
2023-04-21T14:36:43.483Z,18.70
2023-04-21T14:39:10.247Z,18.64
2023-04-21T14:41:36.715Z,18.80
2023-04-21T14:44:03.797Z,18.59
2023-04-21T14:46:30.305Z,18.50
2023-04-21T14:48:57.506Z,18.43
2023-04-21T14:51:23.963Z,18.27
2023-04-21T14:53:51.139Z,18.32
2023-04-21T14:56:18.658Z,18.50
2023-04-21T14:58:45.135Z,18.41
2023-04-21T15:01:11.593Z,18.35
2023-04-21T15:03:38.245Z,18.35
2023-04-21T15:06:04.889Z,18.16
2023-04-21T15:08:31.251Z,18.33
2023-04-21T15:10:57.986Z,18.43
2023-04-21T15:13:24.474Z,18.26
2023-04-21T15:15:52.109Z,18.36
2023-04-21T15:18:18.739Z,18.24
2023-04-21T15:20:45.933Z,18.29
2023-04-21T15:23:12.915Z,18.08
2023-04-21T15:25:40.296Z,17.79
2023-04-21T15:28:07.405Z,18.05
2023-04-21T15:30:33.915Z,18.32
2023-04-21T15:33:01.232Z,18.26
2023-04-21T15:35:27.646Z,18.09
2023-04-21T15:37:54.138Z,18.06
2023-04-21T15:40:20.532Z,18.10
2023-04-21T15:42:47.037Z,18.08
2023-04-21T15:45:13.444Z,18.08
2023-04-21T15:47:39.926Z,18.16
2023-04-21T15:50:07.030Z,17.98
2023-04-21T15:52:35.860Z,18.02
2023-04-21T15:55:02.293Z,18.02
2023-04-21T15:57:29.634Z,18.24
2023-04-21T15:59:56.006Z,18.42
2023-04-21T16:02:22.712Z,18.35
2023-04-21T16:04:49.324Z,18.18
2023-04-21T16:07:15.822Z,18.08
2023-04-21T16:09:42.354Z,17.73
2023-04-21T16:12:10.284Z,17.49
2023-04-21T16:14:53.625Z,17.67
2023-04-21T16:17:24.168Z,17.51
2023-04-21T16:19:52.677Z,17.60
2023-04-21T16:22:20.297Z,17.90
2023-04-21T16:24:46.818Z,18.32
2023-04-21T16:27:13.287Z,20.14
2023-04-21T16:29:39.718Z,21.63
2023-04-21T16:32:06.786Z,22.47
2023-04-21T16:34:33.385Z,23.47
2023-04-21T16:37:00.156Z,22.90
2023-04-21T16:39:27.615Z,23.26
2023-04-21T16:41:53.987Z,22.83
2023-04-21T16:44:20.475Z,21.48
2023-04-21T16:46:46.934Z,19.89
2023-04-21T16:49:13.603Z,19.71
2023-04-21T16:51:44.519Z,21.48
2023-04-21T16:54:11.619Z,23.27
2023-04-21T16:56:38.445Z,23.03
2023-04-21T16:59:05.360Z,22.34
2023-04-21T17:01:31.957Z,22.56
2023-04-21T17:03:58.838Z,21.89
2023-04-21T17:06:25.448Z,21.22
2023-04-21T17:08:59.208Z,20.59
2023-04-21T17:11:27.296Z,20.19
2023-04-21T17:13:53.854Z,19.92
2023-04-21T17:16:20.376Z,19.53
2023-04-21T17:18:46.815Z,19.34
2023-04-21T17:21:13.194Z,19.35
2023-04-21T17:23:39.617Z,19.11
2023-04-21T17:26:06.374Z,18.80
2023-04-21T17:28:32.885Z,18.86
2023-04-21T17:31:13.754Z,18.40
2023-04-21T17:33:42.387Z,18.29
2023-04-21T17:36:08.840Z,18.14
2023-04-21T17:38:35.408Z,18.03
2023-04-21T17:41:02.170Z,18.18
2023-04-21T17:43:28.685Z,18.18
2023-04-21T17:45:55.164Z,18.24
2023-04-21T17:48:21.715Z,18.26
2023-04-21T17:50:48.136Z,18.20
2023-04-21T17:53:14.553Z,18.10
2023-04-21T17:55:41.020Z,17.90
2023-04-21T17:58:09.395Z,18.03
2023-04-21T18:00:38.140Z,17.80
2023-04-21T18:03:04.928Z,17.76
2023-04-21T18:05:32.106Z,17.59
2023-04-21T18:07:58.712Z,17.53
2023-04-21T18:10:26.436Z,17.28
2023-04-21T18:12:54.658Z,17.13
2023-04-21T18:15:21.073Z,17.01
2023-04-21T18:17:47.614Z,16.71
2023-04-21T18:20:14.925Z,16.64
2023-04-21T18:22:43.594Z,16.66
2023-04-21T18:25:11.689Z,16.60
2023-04-21T18:27:41.526Z,16.44
2023-04-21T18:30:09.105Z,16.38
2023-04-21T18:32:36.366Z,16.37
2023-04-21T18:35:03.569Z,16.28
2023-04-21T18:37:30.343Z,16.09
2023-04-21T18:39:57.415Z,16.01
2023-04-21T18:42:27.721Z,15.88
2023-04-21T18:44:57.082Z,15.80
2023-04-21T18:47:24.566Z,15.69
2023-04-21T18:49:51.461Z,15.59
2023-04-21T18:52:17.862Z,15.53
2023-04-21T18:54:44.229Z,15.51
2023-04-21T18:57:10.836Z,15.27
2023-04-21T18:59:37.237Z,15.03
2023-04-21T19:02:05.943Z,14.93
2023-04-21T19:04:32.465Z,14.89
2023-04-21T19:06:58.839Z,14.71
2023-04-21T19:09:27.113Z,14.75
2023-04-21T19:11:53.497Z,14.57
2023-04-21T19:14:19.898Z,14.34
2023-04-21T19:16:47.384Z,14.27
2023-04-21T19:19:13.776Z,14.15
2023-04-21T19:21:40.357Z,14.10
2023-04-21T19:24:06.818Z,14.04
2023-04-21T19:26:33.184Z,14.06
2023-04-21T19:28:59.583Z,14.04
2023-04-21T19:31:26.400Z,13.99
2023-04-21T19:33:52.788Z,14.07
2023-04-21T19:36:19.147Z,13.83
2023-04-21T19:38:45.579Z,13.77
2023-04-21T19:41:11.934Z,13.57
2023-04-21T19:43:38.284Z,13.52
2023-04-21T19:46:04.708Z,13.50
2023-04-21T19:48:31.345Z,13.49
2023-04-21T19:50:57.801Z,13.49
2023-04-21T19:53:24.220Z,13.46
2023-04-21T19:55:52.569Z,13.50
2023-04-21T19:58:31.951Z,13.45
2023-04-21T20:01:05.038Z,13.49
2023-04-21T20:03:31.653Z,13.29
2023-04-21T20:05:58.397Z,13.46
2023-04-21T20:08:24.765Z,13.62
2023-04-21T20:10:51.107Z,13.79
2023-04-21T20:13:17.473Z,13.76
2023-04-21T20:15:44.012Z,13.57
2023-04-21T20:18:10.776Z,13.50
2023-04-21T20:20:37.291Z,13.40
2023-04-21T20:23:03.842Z,13.44
2023-04-21T20:25:30.836Z,13.50
2023-04-21T20:27:57.473Z,13.49
2023-04-21T20:30:23.873Z,13.34
2023-04-21T20:32:50.430Z,12.93
2023-04-21T20:35:17.112Z,12.83
2023-04-21T20:37:44.353Z,13.06
2023-04-21T20:40:11.768Z,13.09
2023-04-21T20:42:38.761Z,12.84
2023-04-21T20:45:06.399Z,12.71
2023-04-21T20:47:33.922Z,12.65
2023-04-21T20:50:00.468Z,12.70
2023-04-21T20:52:26.940Z,12.81
2023-04-21T20:54:53.322Z,12.75
2023-04-21T20:57:19.779Z,12.75
2023-04-21T20:59:46.187Z,12.76
2023-04-21T21:02:12.690Z,12.80
2023-04-21T21:04:39.317Z,12.84
2023-04-21T21:07:06.276Z,12.76
2023-04-21T21:09:32.759Z,12.75
2023-04-21T21:11:59.272Z,12.69
2023-04-21T21:14:25.875Z,12.56
2023-04-21T21:16:54.510Z,12.44
2023-04-21T21:19:21.791Z,12.39
2023-04-21T21:21:48.147Z,12.56
2023-04-21T21:24:14.511Z,12.49
2023-04-21T21:26:42.715Z,12.61
2023-04-21T21:29:09.341Z,12.50
2023-04-21T21:31:35.793Z,12.35
2023-04-21T21:34:03.837Z,12.29
2023-04-21T21:36:31.691Z,12.27
2023-04-21T21:38:58.115Z,12.33
2023-04-21T21:41:24.573Z,12.21
2023-04-21T21:43:51.035Z,12.05
2023-04-21T21:46:18.574Z,12.14
2023-04-21T21:48:45.190Z,12.17
2023-04-21T21:51:11.957Z,12.12
2023-04-21T21:53:38.391Z,11.90
2023-04-21T21:56:05.059Z,11.80
2023-04-21T21:58:31.604Z,11.69
2023-04-21T22:00:58.085Z,11.79
2023-04-21T22:03:24.755Z,11.85
2023-04-21T22:05:52.146Z,11.92
2023-04-21T22:08:18.540Z,11.72
2023-04-21T22:10:45.133Z,11.83
2023-04-21T22:13:11.994Z,11.37
2023-04-21T22:15:38.776Z,11.54
2023-04-21T22:18:05.489Z,11.48
2023-04-21T22:20:32.085Z,11.53
2023-04-21T22:22:59.125Z,11.67
2023-04-21T22:25:27.089Z,11.63
2023-04-21T22:27:56.980Z,11.43
2023-04-21T22:30:23.457Z,11.60
2023-04-21T22:32:49.995Z,11.63
2023-04-21T22:35:16.761Z,11.18
2023-04-21T22:37:43.166Z,11.36
2023-04-21T22:40:10.346Z,11.46
2023-04-21T22:42:37.025Z,11.58
2023-04-21T22:45:05.240Z,11.54
2023-04-21T22:47:33.328Z,11.58
2023-04-21T22:49:59.779Z,11.47
2023-04-21T22:52:26.850Z,11.58
2023-04-21T22:54:53.569Z,11.56
2023-04-21T22:57:21.371Z,11.45
2023-04-21T22:59:47.839Z,11.25
2023-04-21T23:02:14.333Z,11.23
2023-04-21T23:04:40.827Z,11.08
2023-04-21T23:07:07.669Z,11.09
2023-04-21T23:09:34.088Z,11.10
2023-04-21T23:12:01.358Z,11.04
2023-04-21T23:14:27.806Z,10.91
2023-04-21T23:16:54.425Z,10.89
2023-04-21T23:19:20.905Z,10.91
2023-04-21T23:21:47.332Z,10.91
2023-04-21T23:24:13.965Z,10.69
2023-04-21T23:26:41.068Z,10.56
2023-04-21T23:29:07.521Z,10.56
2023-04-21T23:31:34.217Z,10.33
2023-04-21T23:34:00.746Z,10.37
2023-04-21T23:36:27.146Z,10.39
2023-04-21T23:38:53.872Z,10.06
2023-04-21T23:41:20.727Z,10.05
2023-04-21T23:43:47.137Z,10.10
2023-04-21T23:46:14.954Z,10.12
2023-04-21T23:48:41.476Z,9.99
2023-04-21T23:51:07.984Z,10.21
2023-04-21T23:53:34.439Z,10.11
2023-04-21T23:56:00.913Z,9.99
2023-04-21T23:58:28.031Z,10.06
